Latest Weather Observations for Wilsons Promontory

IDV60801

Issued at 3:22 pm EDT Sunday 17 February 2019 (issued every 10 minutes, with the page automatically refreshed every 10 minutes)

About weather observations | Map of weather stations | Latest weather observations for VIC | Other Formats
Station Details ID: 085096 Name: WILSONS PROMONTORY LIGHTHOUSE Lat: -39.13 Lon: 146.42 Height: 95.0 m
Data from the previous 72 hours. | See also: Recent months at Wilsons Promontory
Date/Time
EDT
Temp
°C
App
Temp
°C
Dew
Point
°C
Rel
Hum
%
Delta-T
°C
Wind Press
QNH
hPa
Press
MSL
hPa
Rain since
9am
mm
Dir  Spd
km/h
Gust
km/h
Spd
kts
Gust
kts
17/03:00pm 19.3 17.3 15.0 76 2.5 WSW 19 22 10 12 1011.4 1011.2 0.0
17/02:30pm 19.6 15.5 15.0 75 2.7 WSW 30 35 16 19 1011.8 - 0.0
17/02:27pm 19.6 15.8 14.8 74 2.8 WSW 28 35 15 19 1011.8 - 0.0
17/02:00pm 20.3 20.9 15.7 75 2.7 S 7 11 4 6 1011.9 - 0.0
17/01:30pm 19.6 20.1 15.0 75 2.7 E 6 9 3 5 1011.9 - 0.0
17/01:00pm 19.7 19.2 14.9 74 2.8 NE 11 17 6 9 1012.2 - 0.0
17/12:30pm 19.6 18.4 15.0 75 2.7 NE 15 19 8 10 1012.3 - 0.0
17/12:00pm 20.2 18.4 15.6 75 2.7 NE 19 24 10 13 1012.2 1012.0 0.0
17/11:30am 20.3 18.9 15.5 74 2.9 NE 17 20 9 11 1012.4 - 0.0
17/11:00am 19.6 19.2 15.3 76 2.5 NE 11 15 6 8 1012.6 - 0.0
17/10:30am 19.1 19.0 15.0 77 2.4 ENE 9 13 5 7 1012.6 - 0.0
17/10:00am 18.2 18.1 13.9 76 2.5 E 7 13 4 7 1012.7 - 0.0
17/09:30am 18.5 18.4 14.0 75 2.6 SE 7 9 4 5 1012.8 - 0.0
17/09:00am 18.7 18.8 14.4 76 2.5 ESE 7 11 4 6 1012.9 1012.7 0.0
17/08:30am 18.1 18.4 14.4 79 2.1 SE 6 7 3 4 1012.8 - 0.0
17/08:00am 17.2 17.4 14.3 83 1.7 NE 6 9 3 5 1012.7 - 0.0
17/07:30am 16.3 14.7 14.0 86 1.3 W 15 17 8 9 1012.6 - 0.0
17/07:00am 16.0 13.6 13.7 86 1.3 W 19 20 10 11 1012.6 - 0.0
17/06:30am 16.0 13.3 13.5 85 1.4 W 20 24 11 13 1012.3 - 0.0
17/06:00am 16.0 14.6 13.3 84 1.5 W 13 17 7 9 1012.2 1012.0 0.0
17/05:30am 16.2 14.8 13.3 83 1.6 WNW 13 19 7 10 1012.3 - 0.0
17/05:00am 16.3 14.1 13.4 83 1.6 W 17 22 9 12 1012.4 - 0.0
17/04:30am 16.4 15.0 13.5 83 1.6 W 13 17 7 9 1012.5 - 0.0
17/04:00am 16.5 15.6 13.8 84 1.5 W 11 15 6 8 1012.8 - 0.0
17/03:30am 16.6 15.4 13.9 84 1.5 W 13 17 7 9 1013.1 - 0.0
17/03:00am 16.7 15.5 14.0 84 1.5 W 13 19 7 10 1013.6 1013.4 0.0
17/02:30am 16.9 15.8 14.2 84 1.5 WSW 13 17 7 9 1013.9 - 0.0
17/02:00am 17.0 15.9 14.3 84 1.6 W 13 20 7 11 1014.2 - 0.0
17/01:30am 17.1 16.1 14.6 85 1.4 W 13 19 7 10 1014.6 - 0.0
17/01:00am 17.1 16.6 14.9 87 1.3 W 11 17 6 9 1015.0 - 0.0
17/12:30am 17.2 16.7 15.0 87 1.3 W 11 17 6 9 1015.2 - 0.0
17/12:00am 17.3 15.7 15.1 87 1.3 W 17 22 9 12 1015.4 1015.2 0.0
 
Date/Time
EDT
Temp
°C
App
Temp
°C
Dew
Point
°C
Rel
Hum
%
Delta-T
°C
Wind Press
QNH
hPa
Press
MSL
hPa
Rain since
9am
mm
Dir  Spd
km/h
Gust
km/h
Spd
kts
Gust
kts
16/11:30pm 17.6 16.9 15.4 87 1.3 W 13 19 7 10 1015.9 - 0.0
16/11:00pm 17.4 17.4 15.2 87 1.3 W 9 13 5 7 1015.8 - 0.0
16/10:30pm 17.5 17.5 15.3 87 1.3 W 9 13 5 7 1016.0 - 0.0
16/10:00pm 17.5 16.4 15.3 87 1.3 W 15 20 8 11 1016.1 - 0.0
16/09:30pm 17.8 16.4 15.6 87 1.3 W 17 24 9 13 1016.1 - 0.0
16/09:00pm 17.7 14.5 15.3 86 1.4 WSW 26 32 14 17 1015.5 1015.3 0.0
16/08:30pm 17.9 13.5 15.2 84 1.6 WSW 32 35 17 19 1015.2 - 0.0
16/08:00pm 18.0 13.1 15.4 85 1.5 WSW 35 41 19 22 1014.9 - 0.0
16/07:30pm 18.0 13.9 16.0 88 1.2 WSW 32 35 17 19 1014.8 - 0.0
16/07:00pm 18.2 13.9 16.0 87 1.3 SW 33 37 18 20 1014.9 - 0.0
16/06:30pm 18.5 14.0 16.3 87 1.3 SW 35 39 19 21 1014.9 - 0.0
16/06:00pm 18.8 15.7 16.6 87 1.3 SW 28 33 15 18 1015.0 1014.8 0.0
16/05:30pm 18.9 16.1 16.3 85 1.6 SW 26 32 14 17 1015.2 - 0.0
16/05:00pm 19.2 16.0 16.2 83 1.8 WSW 28 32 15 17 1015.5 - 0.0
16/04:30pm 19.8 17.0 16.4 81 2.1 WSW 26 32 14 17 1015.5 - 0.0
16/04:00pm 19.5 15.9 16.3 82 1.9 WSW 30 33 16 18 1015.6 - 0.0
16/03:30pm 20.1 17.1 16.9 82 1.9 SW 28 32 15 17 1015.7 - 0.0
16/03:00pm 19.8 20.3 16.6 82 1.9 W 9 15 5 8 1016.3 1016.1 0.0
16/02:30pm 20.3 20.9 16.9 81 2.1 SSW 9 13 5 7 1016.6 - 0.0
16/02:00pm 20.1 20.7 16.7 81 2.1 SSW 9 13 5 7 1016.9 - 0.0
16/01:30pm 20.0 19.9 17.0 83 1.8 SSE 13 15 7 8 1017.1 - 0.0
16/01:00pm 19.7 19.8 16.5 82 1.9 SE 11 13 6 7 1017.3 - 0.0
16/12:30pm 21.0 20.7 17.4 80 2.2 E 15 19 8 10 1017.5 - 0.0
16/12:00pm 20.3 19.1 17.1 82 2.0 E 19 20 10 11 1017.6 1017.4 0.0
16/11:30am 19.9 19.6 17.3 85 1.6 E 15 17 8 9 1018.2 - 0.0
16/11:00am 19.5 19.5 17.3 87 1.3 E 13 15 7 8 1018.6 - 0.0
16/10:30am 18.3 18.7 16.3 88 1.2 NE 9 11 5 6 1018.9 - 0.0
16/10:00am 18.3 18.4 16.5 89 1.1 NNE 11 15 6 8 1019.0 - 0.0
16/09:30am 18.1 16.6 16.3 89 1.1 NE 19 24 10 13 1018.9 - 0.0
16/09:00am 17.8 14.5 16.0 89 1.1 NE 28 32 15 17 1018.5 1018.3 0.0
16/08:30am 17.7 14.7 15.9 89 1.1 NE 26 33 14 18 1018.5 - 0.0
16/08:00am 17.6 13.4 15.6 88 1.2 NE 32 39 17 21 1018.4 - 0.0
16/07:30am 17.5 13.6 15.5 88 1.2 NE 30 37 16 20 1018.4 - 0.0
16/06:30am 17.2 12.2 15.0 87 1.3 NE 35 41 19 22 1018.2 - 0.0
16/06:00am 17.2 14.2 14.8 86 1.4 NE 24 30 13 16 1018.9 1018.7 0.0
16/05:30am 17.1 13.3 14.7 86 1.4 NE 28 33 15 18 1018.9 - 0.0
16/05:00am 16.9 12.2 14.4 85 1.4 NE 32 39 17 21 1018.8 - 0.0
16/04:30am 16.9 12.6 14.4 85 1.4 NE 30 37 16 20 1019.3 - 0.0
16/03:30am 16.9 11.9 14.0 83 1.7 NNE 33 43 18 23 1019.6 - 0.0
16/03:00am 16.8 11.4 13.9 83 1.6 NNE 35 43 19 23 1019.8 1019.6 0.0
16/02:30am 16.7 11.8 13.8 83 1.6 NNE 32 41 17 22 1020.0 - 0.0
16/02:00am 16.7 10.8 13.6 82 1.8 NNE 37 46 20 25 1020.2 - 0.0
16/01:30am 16.8 10.9 13.5 81 1.9 NE 37 46 20 25 1020.5 - 0.0
16/01:00am 16.8 11.6 13.5 81 1.9 NE 33 44 18 24 1020.9 - 0.0
16/12:30am 16.9 11.9 13.4 80 2.0 NNE 32 44 17 24 1021.5 - 0.0
16/12:00am 16.9 11.2 13.0 78 2.2 NE 35 44 19 24 1021.7 1021.5 0.0
 
Date/Time
EDT
Temp
°C
App
Temp
°C
Dew
Point
°C
Rel
Hum
%
Delta-T
°C
Wind Press
QNH
hPa
Press
MSL
hPa
Rain since
9am
mm
Dir  Spd
km/h
Gust
km/h
Spd
kts
Gust
kts
15/11:30pm 16.9 11.6 13.2 79 2.1 NE 33 43 18 23 1022.0 - 0.0
15/11:00pm 16.9 11.6 13.2 79 2.1 NE 33 41 18 22 1022.3 - 0.0
15/10:30pm 16.8 11.4 12.9 78 2.2 NE 33 41 18 22 1022.6 - 0.0
15/10:00pm 16.9 11.1 12.8 77 2.3 NE 35 41 19 22 1022.5 - 0.0
15/09:30pm 16.8 11.5 12.5 76 2.4 NE 32 39 17 21 1022.7 - 0.0
15/09:00pm 16.8 12.6 12.5 76 2.4 ENE 26 32 14 17 1022.9 1022.7 0.0
15/08:30pm 16.7 12.5 12.3 75 2.4 ENE 26 30 14 16 1022.6 - 0.0
15/08:00pm 16.7 13.5 12.0 74 2.6 E 20 24 11 13 1022.5 - 0.0
15/07:30pm 16.8 14.2 11.9 73 2.7 E 17 20 9 11 1022.4 - 0.0
15/07:00pm 17.1 14.9 12.0 72 2.8 E 15 20 8 11 1022.3 - 0.0
15/06:30pm 17.3 15.5 12.0 71 2.9 ESE 13 19 7 10 1022.5 - 0.0
15/06:00pm 17.7 15.8 11.9 69 3.2 SSE 13 17 7 9 1022.4 1022.2 0.0
15/05:30pm 17.9 16.3 11.7 67 3.4 SSE 11 15 6 8 1022.5 - 0.0
15/05:00pm 18.2 16.6 11.7 66 3.6 SSW 11 19 6 10 1022.6 - 0.0
15/04:30pm 18.4 16.5 11.9 66 3.6 S 13 20 7 11 1022.6 - 0.0
15/04:00pm 18.3 16.3 11.6 65 3.7 SSW 13 20 7 11 1022.8 - 0.0
15/03:30pm 19.1 17.8 12.6 66 3.7 S 11 19 6 10 1023.0 - 0.0
15/03:00pm 18.9 17.9 12.4 66 3.6 WSW 9 17 5 9 1023.3 1023.1 0.0
15/02:30pm 18.9 18.3 12.4 66 3.6 WNW 7 13 4 7 1023.2 - 0.0
15/02:00pm 18.6 16.3 11.7 64 3.8 SW 15 24 8 13 1023.4 - 0.0
15/01:30pm 18.6 15.5 11.7 64 3.8 SW 19 26 10 14 1023.4 - 0.0
15/01:00pm 18.4 17.3 11.9 66 3.6 N 9 30 5 16 1023.5 - 0.0
15/12:30pm 18.1 14.4 11.4 65 3.7 WSW 22 28 12 15 1023.8 - 0.0
15/12:00pm 18.1 14.4 11.4 65 3.7 SW 22 30 12 16 1024.1 1023.9 0.0
15/11:30am 17.6 12.7 11.2 66 3.5 WSW 28 35 15 19 1024.3 - 0.0
15/11:00am 17.4 11.7 11.2 67 3.4 WSW 32 39 17 21 1024.2 - 0.0
15/10:30am 17.2 12.2 11.0 67 3.4 WSW 28 35 15 19 1024.2 - 0.0
15/10:00am 17.0 11.3 11.3 69 3.1 WSW 32 37 17 20 1024.0 - 0.0
15/09:00am 16.5 11.9 11.0 70 2.9 WSW 26 35 14 19 1023.8 1023.6 0.2
15/08:30am 16.6 12.2 11.7 73 2.7 WSW 26 35 14 19 1023.4 - 0.2
15/08:00am 16.6 13.8 12.6 77 2.2 W 19 26 10 14 1023.2 - 0.2
15/07:30am 16.5 13.1 11.4 72 2.8 W 20 28 11 15 1022.9 - 0.2
15/07:00am 16.4 13.7 11.8 74 2.5 W 17 28 9 15 1022.7 - 0.2
15/06:30am 16.3 12.9 11.2 72 2.8 W 20 26 11 14 1022.4 - 0.2
15/06:00am 16.3 13.0 11.7 74 2.5 W 20 30 11 16 1022.3 1022.1 0.2
15/05:30am 16.3 13.3 12.1 76 2.3 W 19 30 10 16 1022.2 - 0.2
15/05:00am 16.3 14.6 12.5 78 2.1 WSW 13 26 7 14 1022.1 - 0.2
15/04:30am 16.0 13.2 12.6 80 1.9 W 19 28 10 15 1022.1 - 0.2
15/04:00am 16.0 12.7 12.7 81 1.8 W 22 32 12 17 1021.9 - 0.2
15/03:30am 15.8 13.0 12.5 81 1.8 W 19 28 10 15 1021.8 - 0.2
15/03:00am 16.0 12.3 12.6 80 1.9 W 24 32 13 17 1021.7 1021.5 0.2
15/02:30am 16.4 12.6 12.4 77 2.2 W 24 33 13 18 1021.7 - 0.2
15/02:00am 16.2 12.9 13.9 86 1.3 W 24 35 13 19 1021.7 - 0.2
15/01:35am 16.1 11.9 13.4 84 1.5 W 28 48 15 26 1021.3 - 0.2
15/01:30am 16.5 13.4 13.4 82 1.7 W 22 33 12 18 1021.6 - 0.2
15/01:00am 16.3 12.3 13.0 81 1.8 W 26 41 14 22 1021.7 - 0.2
15/12:30am 16.4 13.1 12.9 80 2.0 W 22 30 12 16 1021.7 - 0.2
15/12:00am 16.4 13.1 12.9 80 1.9 W 22 33 12 18 1021.7 1021.5 0.2
 
Date/Time
EDT
Temp
°C
App
Temp
°C
Dew
Point
°C
Rel
Hum
%
Delta-T
°C
Wind Press
QNH
hPa
Press
MSL
hPa
Rain since
9am
mm
Dir  Spd
km/h
Gust
km/h
Spd
kts
Gust
kts
14/11:30pm 16.3 12.6 12.7 79 2.0 W 24 37 13 20 1021.7 - 0.2
14/11:00pm 16.2 11.8 12.9 81 1.8 W 28 39 15 21 1021.4 - 0.2
14/10:30pm 16.3 11.2 13.0 81 1.8 W 32 43 17 23 1021.4 - 0.2
14/10:00pm 16.4 11.6 12.9 80 2.0 W 30 48 16 26 1021.3 - 0.2
14/09:30pm 16.8 10.4 12.1 74 2.6 W 37 52 20 28 1020.7 - 0.2
14/09:19pm 16.8 11.4 12.7 77 2.3 W 33 52 18 28 1020.5 - 0.2
14/09:00pm 16.6 10.3 12.4 76 2.3 W 37 50 20 27 1020.3 1020.1 0.2
14/08:43pm 16.6 10.7 12.4 76 2.3 W 35 54 19 29 1020.2 - 0.2
14/08:30pm 16.6 11.1 12.4 76 2.3 W 33 50 18 27 1020.1 - 0.2
14/08:00pm 16.6 10.2 11.9 74 2.6 W 37 56 20 30 1019.6 - 0.2
14/07:30pm 16.9 10.2 12.2 74 2.6 W 39 57 21 31 1019.3 - 0.2
14/07:19pm 16.8 11.2 12.1 74 2.6 W 33 54 18 29 1019.2 - 0.2
14/07:00pm 16.9 10.1 11.8 72 2.8 W 39 56 21 30 1019.0 - 0.2
14/06:36pm 17.1 10.4 12.2 73 2.7 W 39 59 21 32 1018.9 - 0.2
14/06:30pm 17.0 9.9 12.1 73 2.7 W 41 56 22 30 1018.9 - 0.2
14/06:04pm 17.3 11.0 12.4 73 2.7 W 37 56 20 30 1018.8 - 0.2
14/06:00pm 17.2 10.1 12.3 73 2.7 W 41 56 22 30 1018.8 1018.6 0.2
14/05:30pm 17.8 10.0 11.8 68 3.3 W 44 63 24 34 1018.2 - 0.2
14/05:00pm 18.1 10.8 12.8 71 3.0 W 43 65 23 35 1018.0 - 0.2
14/04:37pm 17.5 9.1 12.2 71 2.9 W 48 67 26 36 1017.6 - 0.2
14/04:30pm 17.5 9.1 12.2 71 2.9 W 48 65 26 35 1017.7 - 0.2
14/04:00pm 17.1 7.5 12.0 72 2.8 W 54 78 29 42 1017.6 - 0.2
14/03:30pm 17.7 8.4 11.9 69 3.2 W 52 70 28 38 1017.7 - 0.2

Other Formats:

Comma delimited format used in spreadsheet applications
http://www.bom.gov.au/fwo/IDV60801/IDV60801.94893.axf

JavaScript Object Notation format (JSON) in row-major order
http://www.bom.gov.au/fwo/IDV60801/IDV60801.94893.json